Time;durP1;ratioP1;P1;durP2;ratioP2;P2;SDS_P1;SDS_P2;PMS_P1;PMS_P2;Temp;Humidity;BMP_temperature;BMP_pressure;BME280_temperature;BME280_humidity;BME280_pressure;Samples;Min_cycle;Max_cycle;Signal;HPM_P1;HPM_P2
2023/02/20 00:01:54;;;;;;;9.32;4.00;;;6.70;99.90;;;;;;4998233;28;20039;-79
2023/02/20 00:04:20;;;;;;;10.88;3.92;;;6.70;99.90;;;;;;4997176;28;20061;-80
2023/02/20 00:06:47;;;;;;;7.40;2.67;;;6.70;99.90;;;;;;4997075;28;20038;-80
2023/02/20 00:09:14;;;;;;;8.10;3.13;;;6.60;99.90;;;;;;4997378;28;20372;-80
2023/02/20 00:11:41;;;;;;;10.20;3.85;;;6.60;99.90;;;;;;4996604;28;20050;-79
2023/02/20 00:14:07;;;;;;;7.32;3.25;;;6.60;99.90;;;;;;4996687;28;20034;-79
2023/02/20 00:16:34;;;;;;;8.55;3.83;;;6.60;99.90;;;;;;4997675;28;20129;-79
2023/02/20 00:19:01;;;;;;;6.85;3.25;;;6.60;99.90;;;;;;4995362;28;20053;-80
2023/02/20 00:21:27;;;;;;;7.30;3.65;;;6.50;99.90;;;;;;4980155;28;20468;-80
2023/02/20 00:23:54;;;;;;;8.15;3.42;;;6.50;99.90;;;;;;4996445;28;20035;-79
2023/02/20 00:26:21;;;;;;;9.73;4.10;;;6.50;99.90;;;;;;4996704;28;20050;-79
2023/02/20 00:28:48;;;;;;;5.10;3.65;;;6.40;99.90;;;;;;4997717;28;20039;-79
2023/02/20 00:31:15;;;;;;;6.55;3.58;;;6.40;99.90;;;;;;4996211;28;20104;-79
2023/02/20 00:33:42;;;;;;;6.53;3.35;;;6.40;99.90;;;;;;4988541;28;20038;-78
2023/02/20 00:36:09;;;;;;;5.65;3.22;;;6.30;99.90;;;;;;4977829;28;20461;-79
2023/02/20 00:38:36;;;;;;;12.55;3.92;;;6.30;99.90;;;;;;4976539;28;20043;-79
2023/02/20 00:41:02;;;;;;;11.25;4.50;;;6.30;99.90;;;;;;4977468;28;20039;-80
2023/02/20 00:43:30;;;;;;;8.73;3.72;;;6.30;99.90;;;;;;4976508;28;20061;-79
2023/02/20 00:45:57;;;;;;;7.60;4.00;;;6.30;99.90;;;;;;4959757;28;20053;-80
2023/02/20 00:48:23;;;;;;;7.05;3.15;;;6.40;99.90;;;;;;4977114;28;20039;-80
2023/02/20 00:51:10;;;;;;;6.80;3.17;;;6.30;99.90;;;;;;4976463;28;20425;-79
2023/02/20 00:53:37;;;;;;;5.45;3.08;;;6.30;99.90;;;;;;4976373;28;20055;-79
2023/02/20 00:56:04;;;;;;;5.25;3.40;;;6.30;99.90;;;;;;4976084;28;20059;-79
2023/02/20 00:58:32;;;;;;;4.90;3.03;;;6.30;99.90;;;;;;4975264;28;20137;-80
2023/02/20 01:01:00;;;;;;;5.68;3.33;;;6.30;99.90;;;;;;4976326;28;20434;-80
2023/02/20 01:03:26;;;;;;;7.93;3.42;;;6.30;99.90;;;;;;4976733;28;20053;-78
2023/02/20 01:05:53;;;;;;;6.75;3.97;;;6.30;99.90;;;;;;4975390;28;20058;-79
2023/02/20 01:08:19;;;;;;;4.63;3.10;;;6.30;99.90;;;;;;4976046;28;20050;-79
2023/02/20 01:10:46;;;;;;;5.85;3.30;;;6.30;99.90;;;;;;4959146;28;20116;-78
2023/02/20 01:13:13;;;;;;;9.93;3.42;;;6.20;99.90;;;;;;4976001;28;20061;-79
2023/02/20 01:15:39;;;;;;;6.80;3.38;;;6.20;99.90;;;;;;4959882;28;20051;-78
2023/02/20 01:18:06;;;;;;;6.43;3.78;;;6.20;99.90;;;;;;4974299;28;20051;-79
2023/02/20 01:20:33;;;;;;;7.68;2.75;;;6.20;99.90;;;;;;4976821;28;20057;-80
2023/02/20 01:23:02;;;;;;;6.65;4.45;;;6.20;99.90;;;;;;4975778;28;20050;-79
2023/02/20 01:25:29;;;;;;;8.10;3.30;;;6.20;99.90;;;;;;4974926;28;20046;-79
2023/02/20 01:27:55;;;;;;;10.10;3.95;;;6.10;99.90;;;;;;4976391;28;20035;-80
2023/02/20 01:30:22;;;;;;;6.43;3.70;;;6.10;99.90;;;;;;4974799;28;20046;-78
2023/02/20 01:32:49;;;;;;;7.03;3.65;;;6.10;99.90;;;;;;4974502;28;20055;-77
2023/02/20 01:35:15;;;;;;;5.22;2.92;;;6.10;99.90;;;;;;4976006;28;20113;-77
2023/02/20 01:37:42;;;;;;;5.47;3.40;;;6.10;99.90;;;;;;4974576;28;20446;-79
2023/02/20 01:40:09;;;;;;;4.97;3.38;;;6.10;99.90;;;;;;4976318;28;20113;-78
2023/02/20 01:42:35;;;;;;;9.43;3.92;;;6.10;99.90;;;;;;4976636;28;20062;-79
2023/02/20 01:45:02;;;;;;;5.22;3.33;;;6.00;99.90;;;;;;4958603;28;20043;-79
2023/02/20 01:47:28;;;;;;;5.80;3.60;;;6.00;99.90;;;;;;4975295;28;20042;-78
2023/02/20 01:49:57;;;;;;;9.57;4.63;;;6.00;99.90;;;;;;4975259;28;20041;-79
2023/02/20 01:52:24;;;;;;;8.43;3.97;;;6.00;99.90;;;;;;4975644;28;20443;-78
2023/02/20 01:54:50;;;;;;;6.82;3.40;;;6.00;99.90;;;;;;4975220;28;20043;-79
2023/02/20 01:57:17;;;;;;;7.72;4.20;;;5.90;99.90;;;;;;4973930;28;20197;-78
2023/02/20 01:59:43;;;;;;;5.50;3.75;;;5.90;99.90;;;;;;4975173;28;20065;-78
2023/02/20 02:02:12;;;;;;;5.90;3.83;;;5.90;99.90;;;;;;4975219;28;20051;-79
2023/02/20 02:04:39;;;;;;;8.90;4.22;;;6.00;99.90;;;;;;4974494;28;20049;-79
2023/02/20 02:07:06;;;;;;;6.00;4.07;;;6.00;99.90;;;;;;4975177;28;20117;-78
2023/02/20 02:09:32;;;;;;;5.43;3.60;;;6.00;99.90;;;;;;4975084;28;20043;-78
2023/02/20 02:12:01;;;;;;;7.07;3.63;;;6.00;99.90;;;;;;4975366;28;20047;-79
2023/02/20 02:14:29;;;;;;;;;;;6.00;99.90;;;;;;4960108;28;20481;-79
2023/02/20 02:16:55;;;;;;;6.10;2.90;;;5.90;99.90;;;;;;4974656;28;19922;-78
2023/02/20 02:19:22;;;;;;;5.05;3.72;;;6.00;99.90;;;;;;4974166;28;20406;-78
2023/02/20 02:21:51;;;;;;;6.32;3.40;;;6.10;99.90;;;;;;4959645;28;20462;-77
2023/02/20 02:24:18;;;;;;;6.10;3.13;;;6.20;99.90;;;;;;4974386;28;20038;-79
2023/02/20 02:26:45;;;;;;;7.30;3.83;;;6.30;99.90;;;;;;4975997;28;20039;-78
2023/02/20 02:29:11;;;;;;;5.00;3.35;;;6.40;99.90;;;;;;4978613;28;20075;-77
2023/02/20 02:31:39;;;;;;;6.25;3.35;;;6.40;99.90;;;;;;4964501;28;20057;-78
2023/02/20 02:34:06;;;;;;;7.57;3.63;;;6.40;99.90;;;;;;4969569;28;20071;-78
2023/02/20 02:36:33;;;;;;;5.03;3.15;;;6.50;99.90;;;;;;4962443;28;20368;-77
2023/02/20 02:39:00;;;;;;;5.45;3.70;;;6.50;99.90;;;;;;4961763;28;20039;-78
2023/02/20 02:41:26;;;;;;;4.80;3.55;;;6.50;99.90;;;;;;4962058;28;20047;-78
2023/02/20 02:43:53;;;;;;;4.97;3.13;;;6.60;99.90;;;;;;4962078;28;20346;-78
2023/02/20 02:46:20;;;;;;;9.80;5.38;;;6.60;99.90;;;;;;4962806;28;20043;-77
2023/02/20 02:48:46;;;;;;;7.57;3.50;;;6.60;99.90;;;;;;4961441;28;20039;-77
2023/02/20 02:51:16;;;;;;;5.25;3.33;;;6.70;99.90;;;;;;4960879;28;20051;-78
2023/02/20 02:53:42;;;;;;;7.13;4.07;;;6.70;99.90;;;;;;4961898;29;20047;-78
2023/02/20 02:56:21;;;;;;;7.43;4.18;;;6.70;99.90;;;;;;4962388;28;20316;-79
2023/02/20 02:58:48;;;;;;;5.50;4.47;;;6.70;99.90;;;;;;4944861;28;20529;-77
2023/02/20 03:01:16;;;;;;;6.75;4.28;;;6.70;99.90;;;;;;4945630;28;20455;-79
2023/02/20 03:03:42;;;;;;;6.18;4.88;;;6.70;99.90;;;;;;4960809;28;20043;-78
2023/02/20 03:06:11;;;;;;;9.43;4.43;;;6.70;99.90;;;;;;4961864;28;20039;-78
2023/02/20 03:08:38;;;;;;;5.80;4.35;;;6.70;99.90;;;;;;4961552;28;20047;-78
2023/02/20 03:11:04;;;;;;;5.00;4.50;;;6.70;99.90;;;;;;4960852;28;20425;-78
2023/02/20 03:16:16;;;;;;;6.55;4.65;;;6.70;99.90;;;;;;4961511;28;20054;-77
2023/02/20 03:18:43;;;;;;;5.18;4.03;;;6.70;99.90;;;;;;4961672;28;20471;-77
2023/02/20 03:21:10;;;;;;;7.38;5.65;;;6.70;99.90;;;;;;4961943;28;20053;-77
2023/02/20 03:23:37;;;;;;;6.47;4.95;;;6.70;99.90;;;;;;4961363;28;20043;-77
2023/02/20 03:26:03;;;;;;;7.93;5.55;;;6.70;99.90;;;;;;4977329;28;20082;-78
2023/02/20 03:28:30;;;;;;;7.45;4.70;;;6.70;99.90;;;;;;4962117;28;20097;-78
2023/02/20 03:30:57;;;;;;;8.05;5.20;;;6.70;99.90;;;;;;4960615;28;20441;-78
2023/02/20 03:44:28;;;;;;;9.02;5.57;;;6.80;99.90;;;;;;4957627;28;20065;-78
2023/02/20 03:46:55;;;;;;;7.05;4.75;;;6.80;99.90;;;;;;4958246;29;20059;-78
2023/02/20 03:52:11;;;;;;;8.25;5.60;;;6.80;99.90;;;;;;4973497;28;20039;-78
2023/02/20 03:54:39;;;;;;;9.43;5.30;;;6.80;99.90;;;;;;4958075;29;20075;-78
2023/02/20 03:57:05;;;;;;;6.63;5.35;;;6.80;99.90;;;;;;4973280;28;20381;-79
2023/02/20 03:59:32;;;;;;;6.50;5.18;;;6.80;99.90;;;;;;4958127;28;20548;-76
2023/02/20 04:02:00;;;;;;;5.80;5.18;;;6.80;99.90;;;;;;4957836;28;20054;-77
2023/02/20 04:04:27;;;;;;;5.70;5.03;;;6.80;99.90;;;;;;4957011;29;20126;-78
2023/02/20 04:06:54;;;;;;;5.20;4.47;;;6.80;99.90;;;;;;4958005;29;20050;-79
2023/02/20 04:09:21;;;;;;;8.70;5.50;;;6.80;99.90;;;;;;4957709;29;20166;-78
2023/02/20 04:11:48;;;;;;;7.00;5.18;;;6.80;99.90;;;;;;4940980;29;20054;-78
2023/02/20 04:14:15;;;;;;;10.95;5.60;;;6.80;99.90;;;;;;4942554;29;20070;-78
2023/02/20 04:16:43;;;;;;;5.95;5.18;;;6.80;99.90;;;;;;4957249;28;20385;-78
2023/02/20 04:19:10;;;;;;;5.97;4.60;;;6.90;99.90;;;;;;4957005;28;20514;-78
2023/02/20 04:21:37;;;;;;;7.22;5.72;;;6.80;99.90;;;;;;4958129;28;20063;-79
2023/02/20 04:24:04;;;;;;;5.82;4.60;;;6.80;99.90;;;;;;4956642;29;20075;-79
2023/02/20 04:26:31;;;;;;;6.90;5.15;;;6.90;99.90;;;;;;4957562;29;20043;-77
2023/02/20 04:28:58;;;;;;;6.40;4.97;;;6.80;99.90;;;;;;4958148;29;20462;-77
2023/02/20 04:31:26;;;;;;;7.00;5.28;;;6.90;99.90;;;;;;4956901;29;20482;-79
2023/02/20 04:33:53;;;;;;;9.50;5.05;;;6.90;99.90;;;;;;4957744;29;20401;-78
2023/02/20 04:36:22;;;;;;;6.72;5.03;;;6.90;99.90;;;;;;4957622;28;20485;-78
2023/02/20 04:38:50;;;;;;;6.15;4.00;;;6.80;99.90;;;;;;4956437;29;20386;-78
2023/02/20 04:41:21;;;;;;;5.05;4.22;;;6.80;99.90;;;;;;4957062;29;20482;-77
2023/02/20 04:43:48;;;;;;;5.18;4.43;;;6.80;99.90;;;;;;4940466;29;20057;-78
2023/02/20 04:46:15;;;;;;;5.20;3.70;;;6.80;99.90;;;;;;4957374;29;20418;-78
2023/02/20 04:48:42;;;;;;;4.70;3.80;;;6.80;99.90;;;;;;4941376;29;20043;-78
2023/02/20 04:51:09;;;;;;;5.05;4.55;;;6.80;99.90;;;;;;4956361;29;20070;-79
2023/02/20 04:53:36;;;;;;;7.32;4.35;;;6.80;99.90;;;;;;4940619;29;20053;-78
2023/02/20 04:56:03;;;;;;;4.47;3.63;;;6.80;99.90;;;;;;4941164;29;20062;-79
2023/02/20 04:58:35;;;;;;;6.82;3.88;;;6.80;99.90;;;;;;4955931;28;20043;-78
2023/02/20 05:01:13;;;;;;;20.55;5.60;;;6.90;99.90;;;;;;4942136;29;20039;-78
2023/02/20 05:03:39;;;;;;;4.20;3.03;;;6.80;99.90;;;;;;4958179;28;20067;-78
2023/02/20 05:06:06;;;;;;;5.07;3.75;;;6.80;99.90;;;;;;4957939;28;20046;-78
2023/02/20 05:08:33;;;;;;;4.85;3.92;;;6.90;99.90;;;;;;4957557;28;20039;-78
2023/02/20 05:10:59;;;;;;;4.60;3.72;;;6.90;99.90;;;;;;4956883;28;20046;-79
2023/02/20 05:13:26;;;;;;;3.92;3.10;;;6.90;99.90;;;;;;4956871;29;20050;-78
2023/02/20 05:15:53;;;;;;;3.90;3.50;;;6.90;99.90;;;;;;4958025;28;20451;-78
2023/02/20 05:18:19;;;;;;;3.78;3.05;;;6.90;99.90;;;;;;4956421;28;20094;-77
2023/02/20 05:23:32;;;;;;;4.00;3.35;;;6.90;99.90;;;;;;4957660;28;20050;-77
2023/02/20 05:25:59;;;;;;;4.78;3.90;;;6.90;99.90;;;;;;4956583;28;20039;-78
2023/02/20 05:28:25;;;;;;;4.03;3.50;;;7.00;99.90;;;;;;4956165;28;20043;-77
2023/02/20 05:30:52;;;;;;;5.03;3.60;;;6.90;99.90;;;;;;4939761;29;20054;-78
2023/02/20 05:33:19;;;;;;;3.45;2.95;;;7.00;99.90;;;;;;4957396;28;20491;-78
2023/02/20 05:35:45;;;;;;;5.93;3.30;;;7.00;99.90;;;;;;4957887;28;20047;-77
2023/02/20 05:38:12;;;;;;;4.03;3.35;;;7.00;99.90;;;;;;4956391;28;20047;-78
2023/02/20 05:40:38;;;;;;;4.53;3.30;;;7.00;99.90;;;;;;4957063;28;20114;-79
2023/02/20 05:43:07;;;;;;;4.53;3.50;;;7.00;99.90;;;;;;4956833;28;20051;-78
2023/02/20 05:45:34;;;;;;;5.82;3.40;;;7.10;99.90;;;;;;4956345;28;20117;-77
2023/02/20 05:48:00;;;;;;;4.10;3.25;;;7.10;99.90;;;;;;4956778;28;20407;-76
2023/02/20 05:50:27;;;;;;;4.47;2.92;;;7.10;99.90;;;;;;4955243;28;20047;-78
2023/02/20 05:52:55;;;;;;;6.63;4.03;;;7.10;99.90;;;;;;4957290;28;20070;-77
2023/02/20 05:55:21;;;;;;;7.47;3.60;;;7.10;99.90;;;;;;4955934;28;20363;-77
2023/02/20 05:57:48;;;;;;;4.05;3.47;;;7.10;99.90;;;;;;4955967;28;20571;-77
2023/02/20 06:00:15;;;;;;;5.07;3.38;;;7.10;99.90;;;;;;4957269;28;20473;-77
2023/02/20 06:02:43;;;;;;;5.13;2.92;;;7.10;99.90;;;;;;4957011;28;20058;-77
2023/02/20 06:05:09;;;;;;;4.95;3.22;;;7.10;99.90;;;;;;4955720;28;20031;-78
2023/02/20 06:07:36;;;;;;;6.65;4.43;;;7.10;99.90;;;;;;4956593;28;20062;-79
2023/02/20 06:10:02;;;;;;;5.03;3.45;;;7.10;99.90;;;;;;4940380;29;20050;-78
2023/02/20 06:12:30;;;;;;;4.35;3.00;;;7.10;99.90;;;;;;4938910;29;20065;-78
2023/02/20 06:14:57;;;;;;;8.63;3.47;;;7.10;99.90;;;;;;4956069;29;20053;-77
2023/02/20 06:17:23;;;;;;;4.82;3.30;;;7.10;99.90;;;;;;4954919;28;20058;-77
2023/02/20 06:19:50;;;;;;;5.28;3.22;;;7.10;99.90;;;;;;4956088;29;20043;-77
2023/02/20 06:22:17;;;;;;;4.82;3.28;;;7.10;99.90;;;;;;4956001;28;20106;-78
2023/02/20 06:24:44;;;;;;;7.30;3.55;;;7.10;99.90;;;;;;4955976;28;20082;-78
2023/02/20 06:27:10;;;;;;;5.60;2.67;;;7.10;99.90;;;;;;4955479;29;20043;-78
2023/02/20 06:29:37;;;;;;;4.97;3.08;;;7.10;99.90;;;;;;4956571;28;20051;-76
2023/02/20 06:32:04;;;;;;;7.65;3.45;;;7.20;99.90;;;;;;4955755;28;20130;-78
2023/02/20 06:34:32;;;;;;;5.15;3.30;;;7.10;99.90;;;;;;4956149;29;20047;-78
2023/02/20 06:36:58;;;;;;;4.25;3.17;;;7.10;99.90;;;;;;4955234;28;20434;-78
2023/02/20 06:39:25;;;;;;;3.13;2.58;;;7.10;99.90;;;;;;4956002;28;20195;-78
2023/02/20 06:41:53;;;;;;;3.38;2.75;;;7.10;99.90;;;;;;4955246;28;20047;-78
2023/02/20 06:44:19;;;;;;;5.43;2.63;;;7.20;99.90;;;;;;4954893;29;20031;-78
2023/02/20 06:46:46;;;;;;;4.00;2.42;;;7.20;99.90;;;;;;4939226;29;20047;-77
2023/02/20 06:49:13;;;;;;;3.90;2.40;;;7.20;99.90;;;;;;4956360;28;20126;-78
2023/02/20 06:51:42;;;;;;;3.97;2.72;;;7.20;99.90;;;;;;4954481;29;20043;-78
2023/02/20 06:54:08;;;;;;;4.13;3.13;;;7.20;99.90;;;;;;4956333;28;20382;-78
2023/02/20 06:56:35;;;;;;;3.03;2.72;;;7.20;99.90;;;;;;4955016;28;20289;-78
2023/02/20 06:59:02;;;;;;;4.88;2.95;;;7.30;99.90;;;;;;4955660;28;20036;-79
2023/02/20 07:01:29;;;;;;;3.35;2.45;;;7.30;99.90;;;;;;4978180;28;20054;-79
2023/02/20 07:03:56;;;;;;;3.22;2.40;;;7.30;99.90;;;;;;4993267;28;20053;-78
2023/02/20 07:06:23;;;;;;;3.30;2.40;;;7.30;99.90;;;;;;4994685;28;20402;-79
2023/02/20 07:08:49;;;;;;;4.72;2.80;;;7.30;99.90;;;;;;4994825;28;20057;-78
2023/02/20 07:11:17;;;;;;;2.35;2.03;;;7.30;99.90;;;;;;4976924;28;20145;-79
2023/02/20 07:13:43;;;;;;;3.17;2.42;;;7.30;99.90;;;;;;4995152;28;20039;-77
2023/02/20 07:16:10;;;;;;;3.03;2.47;;;7.30;99.90;;;;;;4996632;28;20049;-78
2023/02/20 07:18:37;;;;;;;2.85;2.00;;;7.30;99.90;;;;;;4996650;28;20050;-79
2023/02/20 07:21:03;;;;;;;3.13;2.53;;;7.30;99.90;;;;;;4998246;28;20046;-79
2023/02/20 07:23:30;;;;;;;2.97;2.38;;;7.30;99.90;;;;;;4998874;28;20347;-79
2023/02/20 07:25:57;;;;;;;3.42;2.67;;;7.30;99.90;;;;;;4997562;28;20042;-78
2023/02/20 07:28:23;;;;;;;3.85;2.30;;;7.30;99.90;;;;;;4998148;28;20053;-80
2023/02/20 07:30:50;;;;;;;3.10;2.63;;;7.30;99.90;;;;;;4997622;28;20042;-79
2023/02/20 07:33:16;;;;;;;3.97;2.58;;;7.40;99.90;;;;;;4992831;28;20046;-79
2023/02/20 07:35:43;;;;;;;2.85;2.25;;;7.40;99.90;;;;;;4978963;28;20042;-78
2023/02/20 07:38:10;;;;;;;4.43;2.30;;;7.40;99.90;;;;;;4960733;28;20134;-80
2023/02/20 07:40:37;;;;;;;2.38;1.90;;;7.40;99.90;;;;;;4978880;28;20053;-79
2023/02/20 07:43:06;;;;;;;3.33;2.45;;;7.50;99.90;;;;;;4978651;28;20105;-79
2023/02/20 07:45:37;;;;;;;3.47;2.33;;;7.50;99.90;;;;;;4976965;28;20457;-78
2023/02/20 07:48:04;;;;;;;2.70;2.05;;;7.50;99.90;;;;;;4961538;28;20074;-79
2023/02/20 07:50:31;;;;;;;3.35;2.33;;;7.60;99.90;;;;;;4980613;28;20041;-79
2023/02/20 07:53:00;;;;;;;3.95;2.78;;;7.50;99.90;;;;;;4998072;28;20046;-78
2023/02/20 07:55:27;;;;;;;3.92;2.63;;;7.60;99.90;;;;;;4997411;28;20060;-80
2023/02/20 07:57:56;;;;;;;3.78;2.20;;;7.70;99.90;;;;;;4995906;28;20050;-78
2023/02/20 08:00:23;;;;;;;2.67;2.15;;;7.70;99.90;;;;;;4996792;28;20440;-78
2023/02/20 08:02:50;;;;;;;3.38;2.63;;;7.70;99.90;;;;;;4981031;28;20047;-78
2023/02/20 08:05:17;;;;;;;2.55;1.92;;;7.80;99.90;;;;;;4997130;28;20035;-79
2023/02/20 08:07:44;;;;;;;2.78;2.00;;;7.80;99.90;;;;;;4996502;28;20042;-79
2023/02/20 08:10:11;;;;;;;2.70;2.30;;;7.80;99.90;;;;;;4997631;28;20133;-78
2023/02/20 08:12:37;;;;;;;1.90;1.63;;;7.80;99.90;;;;;;4997036;28;20080;-78
2023/02/20 08:15:04;;;;;;;2.78;1.70;;;7.80;99.90;;;;;;4996563;28;20050;-78
2023/02/20 08:17:31;;;;;;;2.90;1.98;;;7.90;99.90;;;;;;4996523;28;20418;-79
2023/02/20 08:20:12;;;;;;;2.95;1.95;;;8.00;99.90;;;;;;4997434;28;20054;-77
2023/02/20 08:22:40;;;;;;;2.75;2.05;;;8.10;99.90;;;;;;4997307;28;20042;-78
2023/02/20 08:25:07;;;;;;;3.22;2.38;;;8.20;99.90;;;;;;4996953;28;20093;-79
2023/02/20 08:27:37;;;;;;;3.92;2.80;;;8.30;99.90;;;;;;4996986;28;20057;-79
2023/02/20 08:30:03;;;;;;;2.67;1.80;;;8.50;99.90;;;;;;4997356;28;20043;-79
2023/02/20 08:32:30;;;;;;;2.60;2.13;;;8.60;99.90;;;;;;4996270;28;20129;-79
2023/02/20 08:34:57;;;;;;;3.53;2.28;;;8.70;99.90;;;;;;4978506;28;20089;-78
2023/02/20 08:37:24;;;;;;;3.65;2.20;;;8.70;99.90;;;;;;4977132;28;20117;-78
2023/02/20 08:39:50;;;;;;;1.95;1.60;;;8.80;99.90;;;;;;4977806;28;20050;-80
2023/02/20 08:42:17;;;;;;;2.75;1.30;;;8.90;99.90;;;;;;4976675;28;20372;-78
2023/02/20 08:44:44;;;;;;;1.42;1.25;;;8.90;99.90;;;;;;4959773;28;20141;-78
2023/02/20 08:47:10;;;;;;;1.75;1.30;;;8.90;99.90;;;;;;4977475;28;20046;-78
2023/02/20 08:49:37;;;;;;;2.30;1.45;;;8.90;99.90;;;;;;4961173;28;20058;-77
2023/02/20 08:52:04;;;;;;;1.42;1.13;;;8.90;99.90;;;;;;4959732;28;20054;-78
2023/02/20 08:54:31;;;;;;;1.58;1.30;;;8.90;99.90;;;;;;4977851;28;20484;-78
2023/02/20 08:56:58;;;;;;;1.80;1.38;;;8.90;99.90;;;;;;4976095;28;20114;-78
2023/02/20 08:59:24;;;;;;;1.50;1.20;;;9.00;99.90;;;;;;4975579;28;20137;-77
2023/02/20 09:01:53;;;;;;;2.35;1.50;;;9.00;99.90;;;;;;4977780;28;20105;-78
2023/02/20 09:04:21;;;;;;;1.85;1.38;;;9.00;99.90;;;;;;4976409;28;20111;-78
2023/02/20 09:06:48;;;;;;;2.00;1.40;;;9.00;99.90;;;;;;4976006;28;20046;-78
2023/02/20 09:09:14;;;;;;;2.53;1.60;;;9.10;99.90;;;;;;4977072;28;20058;-77
2023/02/20 09:11:43;;;;;;;1.95;1.38;;;9.10;99.90;;;;;;4976223;28;20139;-77
2023/02/20 09:14:10;;;;;;;2.30;1.42;;;9.00;99.90;;;;;;4977084;28;20104;-77
2023/02/20 09:16:40;;;;;;;2.50;1.50;;;9.00;99.90;;;;;;4976356;28;20046;-77
2023/02/20 09:19:07;;;;;;;2.67;1.52;;;9.00;99.90;;;;;;4976038;28;20166;-78
2023/02/20 09:21:34;;;;;;;3.67;1.90;;;9.00;99.90;;;;;;4977189;28;20050;-77
2023/02/20 09:24:00;;;;;;;2.55;1.63;;;9.00;99.90;;;;;;4975042;28;20047;-78
2023/02/20 09:26:27;;;;;;;2.42;1.38;;;9.10;99.90;;;;;;4969779;28;20030;-78
2023/02/20 09:28:54;;;;;;;2.40;1.50;;;9.10;99.90;;;;;;4985230;28;20042;-78
2023/02/20 09:31:20;;;;;;;2.50;1.33;;;9.10;99.90;;;;;;4979434;28;20053;-76
2023/02/20 09:33:47;;;;;;;2.58;1.55;;;9.20;99.90;;;;;;4978066;28;20129;-78
2023/02/20 09:36:17;;;;;;;;;;;9.20;99.90;;;;;;4976894;28;20050;-81
2023/02/20 09:38:43;;;;;;;2.20;1.40;;;9.20;99.90;;;;;;4977538;28;19932;-78
2023/02/20 09:41:11;;;;;;;2.03;1.45;;;9.30;99.90;;;;;;4964962;28;20057;-78
2023/02/20 09:43:38;;;;;;;3.35;1.30;;;9.30;99.90;;;;;;4954989;29;20043;-78
2023/02/20 09:46:04;;;;;;;3.45;1.30;;;9.40;99.90;;;;;;4964144;28;20035;-79
2023/02/20 09:48:31;;;;;;;1.75;1.30;;;9.40;99.90;;;;;;4976567;28;20038;-78
2023/02/20 09:50:59;;;;;;;1.70;1.30;;;9.40;99.90;;;;;;4966856;28;20047;-80
2023/02/20 09:53:25;;;;;;;2.10;1.42;;;9.40;99.90;;;;;;4957046;28;20047;-77
2023/02/20 09:55:52;;;;;;;1.95;1.42;;;9.50;99.90;;;;;;4963462;28;20062;-77
2023/02/20 09:58:19;;;;;;;2.13;1.52;;;9.50;99.90;;;;;;4974892;28;20390;-77
2023/02/20 10:00:45;;;;;;;3.03;1.60;;;9.60;99.90;;;;;;4974977;28;20046;-77
2023/02/20 10:03:13;;;;;;;4.13;1.65;;;9.70;99.90;;;;;;4974968;28;20031;-78
2023/02/20 10:05:40;;;;;;;3.88;1.58;;;9.70;99.90;;;;;;4990299;28;20058;-78
2023/02/20 10:08:06;;;;;;;2.53;1.40;;;9.70;99.90;;;;;;4974574;28;20512;-79
2023/02/20 10:10:37;;;;;;;2.90;1.60;;;9.70;99.90;;;;;;4973950;28;20047;-78
2023/02/20 10:13:05;;;;;;;2.03;1.65;;;9.60;99.90;;;;;;4975922;28;20042;-78
2023/02/20 10:15:32;;;;;;;1.90;1.10;;;9.60;99.90;;;;;;4980344;28;20049;-78
2023/02/20 10:17:59;;;;;;;1.98;1.30;;;9.60;99.90;;;;;;4974773;28;20057;-77
2023/02/20 10:20:25;;;;;;;3.45;1.70;;;9.60;99.90;;;;;;4974905;28;20053;-77
2023/02/20 10:22:53;;;;;;;1.88;1.40;;;9.70;99.90;;;;;;4978791;28;20038;-77
2023/02/20 10:25:20;;;;;;;2.03;1.40;;;9.80;99.90;;;;;;4985534;28;20045;-77
2023/02/20 10:27:47;;;;;;;2.75;1.65;;;9.90;99.90;;;;;;4981040;28;20361;-77
2023/02/20 10:30:13;;;;;;;2.00;1.40;;;9.80;99.90;;;;;;4984602;28;20034;-78
2023/02/20 10:32:40;;;;;;;2.67;1.95;;;9.90;99.90;;;;;;4993871;28;20042;-78
2023/02/20 10:35:07;;;;;;;1.80;1.30;;;9.90;99.90;;;;;;4975053;28;20384;-78
2023/02/20 10:37:33;;;;;;;1.90;1.20;;;10.00;99.90;;;;;;4974725;28;20047;-78
2023/02/20 10:40:13;;;;;;;2.10;1.30;;;10.00;99.90;;;;;;4975742;28;20043;-79
2023/02/20 10:42:39;;;;;;;2.33;1.27;;;10.10;99.90;;;;;;4975686;28;20054;-79
2023/02/20 10:45:06;;;;;;;3.17;1.45;;;10.30;99.90;;;;;;4973583;28;20051;-77
2023/02/20 10:47:33;;;;;;;2.67;1.50;;;10.40;99.90;;;;;;4975201;28;20035;-79
2023/02/20 10:50:00;;;;;;;1.80;1.20;;;10.30;99.90;;;;;;4966708;28;20052;-78
2023/02/20 10:52:27;;;;;;;2.40;1.30;;;10.40;99.90;;;;;;4978110;28;20047;-79
2023/02/20 10:54:59;;;;;;;3.45;1.40;;;10.40;99.90;;;;;;4986154;28;20194;-79
2023/02/20 10:57:26;;;;;;;2.55;1.30;;;10.50;99.90;;;;;;4995653;28;20134;-79
2023/02/20 10:59:54;;;;;;;2.33;1.42;;;10.50;99.90;;;;;;4993547;28;20039;-78
2023/02/20 11:02:21;;;;;;;1.58;1.13;;;10.60;99.90;;;;;;4988727;28;20476;-77
2023/02/20 11:04:47;;;;;;;2.40;1.40;;;10.70;99.90;;;;;;4978129;28;20126;-78
2023/02/20 11:07:14;;;;;;;1.23;1.13;;;10.90;99.90;;;;;;4982661;28;20038;-78
2023/02/20 11:09:41;;;;;;;1.25;1.10;;;11.00;99.90;;;;;;4975785;28;20039;-77
2023/02/20 11:12:07;;;;;;;2.28;1.40;;;11.30;99.90;;;;;;4993146;28;20038;-77
2023/02/20 11:14:34;;;;;;;1.38;1.00;;;11.20;99.90;;;;;;4990956;28;20057;-78
2023/02/20 11:17:07;;;;;;;2.63;1.20;;;11.10;99.90;;;;;;4984036;28;20042;-78
2023/02/20 11:19:33;;;;;;;3.53;1.23;;;11.20;99.90;;;;;;4986286;28;20053;-79
2023/02/20 11:22:00;;;;;;;3.78;1.60;;;11.40;99.90;;;;;;4990399;28;20104;-78
2023/02/20 11:24:26;;;;;;;1.73;1.50;;;11.40;99.90;;;;;;4977417;28;20517;-80
2023/02/20 11:26:53;;;;;;;1.95;1.35;;;11.30;99.90;;;;;;4976499;28;20043;-79
2023/02/20 11:29:20;;;;;;;1.42;1.20;;;11.40;99.90;;;;;;4987347;28;20035;-79
2023/02/20 11:31:46;;;;;;;1.92;1.42;;;11.30;99.90;;;;;;4969682;28;20042;-79
2023/02/20 11:34:13;;;;;;;3.85;1.33;;;11.30;99.90;;;;;;4960289;28;20047;-79
2023/02/20 11:36:40;;;;;;;8.15;1.55;;;11.30;99.90;;;;;;4978320;28;20061;-81
2023/02/20 11:39:06;;;;;;;1.40;1.25;;;11.30;99.90;;;;;;4948802;28;20058;-79
2023/02/20 11:41:35;;;;;;;3.58;1.30;;;11.20;99.90;;;;;;4996682;28;20046;-80
2023/02/20 11:44:01;;;;;;;4.50;1.65;;;11.40;99.90;;;;;;4991064;28;20118;-78
2023/02/20 11:46:28;;;;;;;2.15;1.35;;;11.70;99.90;;;;;;4983161;28;20062;-79
2023/02/20 11:48:55;;;;;;;1.70;1.23;;;12.10;99.90;;;;;;4976406;28;20094;-79
2023/02/20 11:51:21;;;;;;;2.35;1.40;;;12.60;99.90;;;;;;4985627;28;20097;-78
2023/02/20 11:53:48;;;;;;;1.60;1.05;;;12.60;99.90;;;;;;4997678;28;20046;-77
2023/02/20 11:56:16;;;;;;;1.88;1.52;;;12.80;99.90;;;;;;4980372;28;20148;-77
2023/02/20 11:58:43;;;;;;;2.53;1.38;;;13.00;99.90;;;;;;4996210;28;20039;-78
2023/02/20 12:01:10;;;;;;;1.27;1.08;;;13.30;99.90;;;;;;4996943;28;20108;-78
2023/02/20 12:03:36;;;;;;;2.20;1.30;;;13.50;99.90;;;;;;4997367;28;20349;-78
2023/02/20 12:06:03;;;;;;;2.55;1.20;;;14.10;99.90;;;;;;4996411;28;20056;-80
2023/02/20 12:08:30;;;;;;;3.13;1.30;;;14.30;99.90;;;;;;4997400;28;20121;-78
2023/02/20 12:10:58;;;;;;;1.80;1.40;;;14.10;99.90;;;;;;4996196;28;20496;-78
2023/02/20 12:13:25;;;;;;;4.72;2.95;;;14.00;99.90;;;;;;4980316;28;20166;-79
2023/02/20 12:15:51;;;;;;;3.22;1.70;;;14.10;99.90;;;;;;4996043;28;20050;-78
2023/02/20 12:18:18;;;;;;;2.47;1.73;;;13.80;99.90;;;;;;4998649;28;20125;-78
2023/02/20 12:20:45;;;;;;;2.25;1.67;;;13.40;99.90;;;;;;4999690;28;20384;-77
2023/02/20 12:23:11;;;;;;;1.83;1.45;;;13.10;99.90;;;;;;4995648;28;20046;-78
2023/02/20 12:25:38;;;;;;;2.92;1.75;;;12.80;99.90;;;;;;4995890;28;20392;-78
2023/02/20 12:28:05;;;;;;;4.13;1.55;;;12.80;99.90;;;;;;4995250;28;20077;-78
2023/02/20 12:30:31;;;;;;;2.30;1.60;;;13.10;99.90;;;;;;4994710;28;20038;-78
2023/02/20 12:32:58;;;;;;;1.92;1.20;;;12.90;99.90;;;;;;4993709;28;20046;-79
2023/02/20 12:35:24;;;;;;;2.97;1.70;;;12.80;99.90;;;;;;4976957;28;20039;-78
2023/02/20 12:37:51;;;;;;;3.58;1.33;;;13.30;99.90;;;;;;4975673;28;20042;-79
2023/02/20 12:40:18;;;;;;;1.17;1.08;;;13.50;99.90;;;;;;4977173;28;20125;-79
2023/02/20 12:42:44;;;;;;;4.20;2.22;;;13.70;99.90;;;;;;4976874;28;20421;-79
2023/02/20 12:45:11;;;;;;;3.00;1.70;;;13.80;99.90;;;;;;4975048;28;20058;-80
2023/02/20 12:47:37;;;;;;;3.33;1.30;;;13.70;99.90;;;;;;4976273;28;20042;-80
2023/02/20 12:50:04;;;;;;;3.90;1.25;;;13.80;99.90;;;;;;4978809;28;20051;-78
2023/02/20 12:52:31;;;;;;;4.90;1.50;;;13.90;99.90;;;;;;4977608;28;20070;-79
2023/02/20 12:54:58;;;;;;;1.50;1.40;;;13.80;99.90;;;;;;4977112;28;20126;-78
2023/02/20 12:57:24;;;;;;;3.67;1.98;;;13.30;99.90;;;;;;4958087;28;20117;-78
2023/02/20 12:59:51;;;;;;;3.38;1.80;;;13.70;99.90;;;;;;4976458;28;20043;-79
2023/02/20 13:02:18;;;;;;;2.13;1.58;;;13.70;99.90;;;;;;4976751;28;20107;-78
2023/02/20 13:04:46;;;;;;;2.03;1.50;;;13.70;99.90;;;;;;4975652;28;20054;-78
2023/02/20 13:07:13;;;;;;;2.20;1.65;;;13.80;99.90;;;;;;4975310;28;20053;-79
2023/02/20 13:09:40;;;;;;;2.50;1.40;;;13.80;99.90;;;;;;4976511;28;20039;-79
2023/02/20 13:12:07;;;;;;;1.77;1.52;;;13.70;99.90;;;;;;4975089;28;20058;-78
2023/02/20 13:14:33;;;;;;;1.90;1.38;;;13.20;99.90;;;;;;4975724;28;20069;-78